Time;durP1;ratioP1;P1;durP2;ratioP2;P2;SDS_P1;SDS_P2;PMS_P1;PMS_P2;Temp;Humidity;BMP_temperature;BMP_pressure;BME280_temperature;BME280_humidity;BME280_pressure;Samples;Min_cycle;Max_cycle;Signal;HPM_P1;HPM_P2
2024/01/14 00:01:25;;;;;;;12.68;5.13;;;1.00;99.90;;;;;;5080059;28;20135;-68
2024/01/14 00:03:51;;;;;;;9.27;5.30;;;1.00;99.90;;;;;;5094608;28;20078;-72
2024/01/14 00:06:16;;;;;;;8.40;5.20;;;1.00;99.90;;;;;;5088010;28;20045;-69
2024/01/14 00:08:42;;;;;;;10.68;5.68;;;1.00;99.90;;;;;;5085907;28;20031;-68
2024/01/14 00:11:12;;;;;;;8.60;4.72;;;1.00;99.90;;;;;;5092985;28;20044;-68
2024/01/14 00:13:38;;;;;;;9.82;5.40;;;1.00;99.90;;;;;;5086697;28;20064;-67
2024/01/14 00:16:03;;;;;;;8.48;4.25;;;1.00;99.90;;;;;;5057687;28;20036;-69
2024/01/14 00:18:29;;;;;;;9.10;5.28;;;1.00;99.90;;;;;;5070049;28;20072;-68
2024/01/14 00:20:55;;;;;;;8.18;4.78;;;1.00;99.90;;;;;;5049359;28;20032;-66
2024/01/14 00:23:20;;;;;;;7.47;5.00;;;1.00;99.90;;;;;;5066042;28;20033;-67
2024/01/14 00:28:14;;;;;;;9.50;5.45;;;0.90;99.90;;;;;;5058310;28;20174;-81
2024/01/14 00:30:40;;;;;;;10.23;4.97;;;1.00;99.90;;;;;;5047442;28;20502;-81
2024/01/14 00:33:06;;;;;;;8.50;4.72;;;0.90;99.90;;;;;;5042941;28;20064;-81
2024/01/14 00:35:33;;;;;;;9.35;5.32;;;0.90;99.90;;;;;;5049511;28;20040;-80
2024/01/14 00:37:59;;;;;;;8.20;4.68;;;0.90;99.90;;;;;;5044553;28;20048;-81
2024/01/14 00:40:25;;;;;;;9.95;4.78;;;0.90;99.90;;;;;;5057350;28;20067;-80
2024/01/14 00:42:51;;;;;;;8.02;4.28;;;0.90;99.90;;;;;;5052043;28;20040;-80
2024/01/14 00:45:17;;;;;;;7.28;4.30;;;0.90;99.90;;;;;;5063452;28;20601;-80
2024/01/14 00:47:43;;;;;;;7.55;4.15;;;0.90;99.90;;;;;;5053302;28;20071;-83
2024/01/14 00:50:10;;;;;;;8.40;4.57;;;0.80;99.90;;;;;;5047808;28;20090;-82
2024/01/14 00:52:36;;;;;;;8.77;4.32;;;0.80;99.90;;;;;;5050003;28;20622;-82
2024/01/14 00:55:06;;;;;;;7.75;3.97;;;0.80;99.90;;;;;;5050310;28;20051;-83
2024/01/14 00:57:33;;;;;;;7.70;4.22;;;0.80;99.90;;;;;;5058762;28;20045;-83
2024/01/14 00:59:59;;;;;;;8.20;4.18;;;0.90;99.90;;;;;;5050334;28;20044;-82
2024/01/14 01:02:25;;;;;;;7.93;4.20;;;0.90;99.90;;;;;;5043809;28;20041;-82
2024/01/14 01:04:51;;;;;;;8.05;3.88;;;0.80;99.90;;;;;;5060273;28;20039;-81
2024/01/14 01:07:16;;;;;;;7.18;3.97;;;0.80;99.90;;;;;;5041742;28;20041;-83
2024/01/14 01:09:42;;;;;;;11.63;5.15;;;0.90;99.90;;;;;;5050064;28;20069;-81
2024/01/14 01:12:08;;;;;;;9.55;4.13;;;0.90;99.90;;;;;;5046249;28;20257;-82
2024/01/14 01:14:34;;;;;;;8.80;4.38;;;0.90;99.90;;;;;;5043723;28;20118;-81
2024/01/14 01:16:59;;;;;;;10.52;4.80;;;0.80;99.90;;;;;;5061696;28;20087;-83
2024/01/14 01:19:25;;;;;;;8.95;4.32;;;0.80;99.90;;;;;;5051619;28;20044;-81
2024/01/14 01:21:51;;;;;;;10.35;5.03;;;0.90;99.90;;;;;;5043426;28;20036;-81
2024/01/14 01:24:17;;;;;;;9.93;4.75;;;0.90;99.90;;;;;;5042565;28;20041;-81
2024/01/14 01:26:43;;;;;;;10.88;5.95;;;0.90;99.90;;;;;;5042402;28;20039;-84
2024/01/14 01:29:08;;;;;;;10.77;5.57;;;0.90;99.90;;;;;;5047437;28;20041;-84
2024/01/14 01:31:35;;;;;;;13.07;6.43;;;0.90;99.90;;;;;;5043447;28;20033;-83
2024/01/14 01:34:00;;;;;;;13.65;5.55;;;0.80;99.90;;;;;;5028765;28;20063;-83
2024/01/14 01:36:26;;;;;;;9.43;5.35;;;0.80;99.90;;;;;;5030248;28;20497;-82
2024/01/14 01:38:53;;;;;;;11.68;6.15;;;0.80;99.90;;;;;;5023759;28;20038;-82
2024/01/14 01:41:19;;;;;;;14.52;7.25;;;0.80;99.90;;;;;;5040893;28;20073;-82
2024/01/14 01:43:45;;;;;;;14.48;6.82;;;0.80;99.90;;;;;;5021964;28;20708;-83
2024/01/14 01:46:15;;;;;;;13.00;6.00;;;0.70;99.90;;;;;;5027958;28;20443;-83
2024/01/14 01:48:41;;;;;;;12.75;5.90;;;0.80;99.90;;;;;;5028761;28;20037;-82
2024/01/14 01:51:08;;;;;;;14.60;7.20;;;0.80;99.90;;;;;;5021888;28;20856;-84
2024/01/14 01:53:34;;;;;;;9.88;5.40;;;0.80;99.90;;;;;;5021404;28;20146;-83
2024/01/14 01:56:01;;;;;;;11.93;5.70;;;0.80;99.90;;;;;;5034905;28;20545;-82
2024/01/14 01:58:27;;;;;;;12.40;6.00;;;0.80;99.90;;;;;;5017259;28;20044;-80
2024/01/14 02:00:53;;;;;;;10.45;5.35;;;0.80;99.90;;;;;;5027725;28;20036;-82
2024/01/14 02:03:20;;;;;;;9.60;4.35;;;0.70;99.90;;;;;;5029399;28;20377;-82
2024/01/14 02:05:52;;;;;;;11.52;5.30;;;0.70;99.90;;;;;;5036418;28;20655;-82
2024/01/14 02:08:18;;;;;;;8.57;4.45;;;0.70;99.90;;;;;;5030984;28;20070;-82
2024/01/14 02:10:44;;;;;;;7.13;3.83;;;0.70;99.90;;;;;;5038367;28;20045;-83
2024/01/14 02:13:11;;;;;;;6.20;3.40;;;0.70;99.90;;;;;;5035231;28;20383;-83
2024/01/14 02:15:38;;;;;;;8.35;3.92;;;0.70;99.90;;;;;;5025439;28;20086;-81
2024/01/14 02:18:05;;;;;;;6.80;3.88;;;0.60;99.90;;;;;;5045591;28;20034;-84
2024/01/14 02:20:31;;;;;;;6.95;4.10;;;0.70;99.90;;;;;;5043177;28;20088;-83
2024/01/14 02:22:57;;;;;;;6.32;3.72;;;0.70;99.90;;;;;;5022888;28;20068;-82
2024/01/14 02:25:23;;;;;;;7.95;3.97;;;0.70;99.90;;;;;;5034982;28;20064;-81
2024/01/14 02:27:50;;;;;;;7.72;4.07;;;0.70;99.90;;;;;;5037214;28;20186;-83
2024/01/14 02:30:17;;;;;;;6.85;3.67;;;0.70;99.90;;;;;;5025773;28;20038;-82
2024/01/14 02:32:43;;;;;;;7.82;3.92;;;0.70;99.90;;;;;;5026804;28;20068;-81
2024/01/14 02:35:09;;;;;;;8.88;3.35;;;0.70;99.90;;;;;;5028014;28;20399;-83
2024/01/14 02:37:38;;;;;;;9.35;3.78;;;0.70;99.90;;;;;;5033700;28;20083;-82
2024/01/14 02:40:07;;;;;;;8.38;3.53;;;0.70;99.90;;;;;;5024424;28;20277;-84
2024/01/14 02:42:46;;;;;;;5.40;3.30;;;0.70;99.90;;;;;;5021208;28;20037;-84
2024/01/14 02:45:16;;;;;;;7.93;3.75;;;0.70;99.90;;;;;;5028068;28;20555;-82
2024/01/14 02:47:41;;;;;;;10.52;4.43;;;0.70;99.90;;;;;;5019233;28;20045;-83
2024/01/14 02:50:08;;;;;;;9.00;3.72;;;0.70;99.90;;;;;;5024396;28;20174;-83
2024/01/14 02:52:36;;;;;;;7.13;3.17;;;0.70;99.90;;;;;;5024446;28;20033;-82
2024/01/14 02:55:12;;;;;;;8.25;4.20;;;0.70;99.90;;;;;;5031828;28;20037;-82
2024/01/14 02:57:39;;;;;;;5.57;2.97;;;0.70;99.90;;;;;;5041536;28;20041;-82
2024/01/14 03:00:06;;;;;;;5.40;3.33;;;0.70;99.90;;;;;;5020803;28;20049;-82
2024/01/14 03:02:33;;;;;;;8.07;3.97;;;0.80;99.90;;;;;;5056998;28;20045;-83
2024/01/14 03:04:59;;;;;;;9.15;4.22;;;0.70;99.90;;;;;;5040451;28;20048;-82
2024/01/14 03:07:27;;;;;;;8.35;4.10;;;0.70;99.90;;;;;;5039970;28;20037;-85
2024/01/14 03:09:54;;;;;;;7.68;4.00;;;0.70;99.90;;;;;;5039471;28;20037;-83
2024/01/14 03:12:20;;;;;;;9.38;4.60;;;0.70;99.90;;;;;;5037840;28;20045;-82
2024/01/14 03:14:50;;;;;;;9.18;4.80;;;0.70;99.90;;;;;;5044968;28;20079;-82
2024/01/14 03:17:16;;;;;;;12.90;4.55;;;0.70;99.90;;;;;;5060219;28;20036;-83
2024/01/14 03:19:42;;;;;;;11.75;5.90;;;0.70;99.90;;;;;;5056754;28;20040;-82
2024/01/14 03:22:08;;;;;;;10.45;6.00;;;0.70;99.90;;;;;;5047402;28;20048;-82
2024/01/14 03:24:34;;;;;;;15.30;6.43;;;0.70;99.90;;;;;;5034661;28;20049;-82
2024/01/14 03:26:59;;;;;;;17.27;6.63;;;0.70;99.90;;;;;;5042876;28;20041;-81
2024/01/14 03:29:25;;;;;;;13.18;6.22;;;0.70;99.90;;;;;;5042459;28;20041;-84
2024/01/14 03:31:51;;;;;;;12.90;6.20;;;0.70;99.90;;;;;;5047391;28;20048;-82
2024/01/14 03:34:16;;;;;;;14.20;6.82;;;0.70;99.90;;;;;;5043396;28;20029;-84
2024/01/14 03:36:42;;;;;;;11.90;6.43;;;0.70;99.90;;;;;;5062609;28;20044;-82
2024/01/14 03:39:08;;;;;;;13.18;6.03;;;0.70;99.90;;;;;;5045107;28;20107;-84
2024/01/14 03:41:36;;;;;;;13.88;6.70;;;0.70;99.90;;;;;;5050552;28;20044;-84
2024/01/14 03:44:04;;;;;;;13.52;6.30;;;0.70;99.90;;;;;;5048009;28;20071;-82
2024/01/14 03:46:30;;;;;;;12.07;6.65;;;0.70;99.90;;;;;;5060686;28;20040;-82
2024/01/14 03:48:56;;;;;;;19.10;7.55;;;0.70;99.90;;;;;;5064210;28;20055;-83
2024/01/14 03:51:22;;;;;;;18.15;7.05;;;0.70;99.90;;;;;;5046973;28;20048;-85
2024/01/14 03:53:48;;;;;;;12.57;7.35;;;0.70;99.90;;;;;;5060794;28;20052;-83
2024/01/14 03:56:14;;;;;;;13.07;6.78;;;0.60;99.90;;;;;;5050989;28;20041;-82
2024/01/14 03:58:41;;;;;;;17.83;7.35;;;0.70;99.90;;;;;;5056981;28;20044;-84
2024/01/14 04:01:18;;;;;;;19.35;7.05;;;0.70;99.90;;;;;;5038125;28;20045;-81
2024/01/14 04:03:46;;;;;;;16.80;7.25;;;0.70;99.90;;;;;;5035199;28;20053;-82
2024/01/14 04:06:14;;;;;;;20.17;7.25;;;0.80;99.90;;;;;;5034205;28;20045;-82
2024/01/14 04:08:42;;;;;;;16.80;7.75;;;0.80;99.90;;;;;;5044932;28;20069;-85
2024/01/14 04:11:09;;;;;;;12.95;6.38;;;0.80;99.90;;;;;;5037053;28;20037;-82
2024/01/14 04:13:35;;;;;;;18.38;7.70;;;0.90;99.90;;;;;;5042251;28;20072;-84
2024/01/14 04:16:04;;;;;;;14.45;6.88;;;0.80;99.90;;;;;;5030315;28;20041;-84
2024/01/14 04:18:30;;;;;;;15.30;7.03;;;0.80;99.90;;;;;;5028570;28;20049;-81
2024/01/14 04:20:59;;;;;;;12.95;6.28;;;0.80;99.90;;;;;;5020581;28;20101;-82
2024/01/14 04:23:24;;;;;;;11.07;5.47;;;0.80;99.90;;;;;;5040573;28;20049;-82
2024/01/14 04:25:50;;;;;;;13.55;6.35;;;0.80;99.90;;;;;;5032336;28;20046;-82
2024/01/14 04:28:16;;;;;;;10.68;5.85;;;0.90;99.90;;;;;;5026759;28;20038;-80
2024/01/14 04:30:42;;;;;;;11.15;5.53;;;0.80;99.90;;;;;;5040467;28;20086;-82
2024/01/14 04:33:07;;;;;;;9.82;4.13;;;0.80;99.90;;;;;;5037936;28;20041;-81
2024/01/14 04:35:33;;;;;;;9.23;4.60;;;0.80;99.90;;;;;;5036758;28;20037;-82
2024/01/14 04:37:59;;;;;;;9.05;4.60;;;0.80;99.90;;;;;;5051616;28;20033;-83
2024/01/14 04:40:25;;;;;;;8.25;4.45;;;0.80;99.90;;;;;;5053898;28;20448;-81
2024/01/14 04:42:51;;;;;;;5.65;3.22;;;0.80;99.90;;;;;;5053221;28;20032;-82
2024/01/14 04:45:16;;;;;;;7.65;3.80;;;0.80;99.90;;;;;;5062815;28;20687;-83
2024/01/14 04:47:42;;;;;;;4.57;2.78;;;0.90;99.90;;;;;;5061517;28;20068;-81
2024/01/14 04:50:11;;;;;;;5.65;3.17;;;0.90;99.90;;;;;;5026065;28;20094;-82
2024/01/14 04:52:37;;;;;;;7.40;3.90;;;0.90;99.90;;;;;;5064588;28;20075;-83
2024/01/14 04:55:03;;;;;;;6.55;3.70;;;0.90;99.90;;;;;;5034736;28;20060;-84
2024/01/14 04:58:02;;;;;;;5.70;3.35;;;0.90;99.90;;;;;;5060694;28;20051;-82
2024/01/14 05:00:29;;;;;;;8.98;3.88;;;0.80;99.90;;;;;;5066111;28;20049;-82
2024/01/14 05:02:56;;;;;;;7.10;4.10;;;0.80;99.90;;;;;;5037528;28;20037;-83
2024/01/14 05:05:23;;;;;;;8.43;4.03;;;0.90;99.90;;;;;;5026283;28;20514;-82
2024/01/14 05:07:49;;;;;;;12.30;4.45;;;0.80;99.90;;;;;;5031426;28;20051;-86
2024/01/14 05:10:16;;;;;;;8.15;4.35;;;0.80;99.90;;;;;;5038387;28;20037;-83
2024/01/14 05:12:43;;;;;;;11.10;4.38;;;0.90;99.90;;;;;;5045896;28;20092;-84
2024/01/14 05:15:09;;;;;;;11.05;4.65;;;0.90;99.90;;;;;;5022572;28;20041;-82
2024/01/14 05:17:36;;;;;;;8.82;3.83;;;0.90;99.90;;;;;;5021744;28;20127;-83
2024/01/14 05:20:02;;;;;;;6.28;3.95;;;0.90;99.90;;;;;;5030043;28;20044;-80
2024/01/14 05:22:29;;;;;;;6.35;3.53;;;0.90;99.90;;;;;;5024619;28;20059;-81
2024/01/14 05:24:55;;;;;;;6.25;3.20;;;0.90;99.90;;;;;;5023622;28;20029;-82
2024/01/14 05:27:21;;;;;;;5.38;3.10;;;0.90;99.90;;;;;;5027686;28;20049;-82
2024/01/14 05:29:47;;;;;;;6.25;3.05;;;0.90;99.90;;;;;;5043002;28;20072;-84
2024/01/14 05:32:15;;;;;;;5.55;2.90;;;0.90;99.90;;;;;;5053290;28;20045;-83
2024/01/14 05:34:44;;;;;;;6.10;3.00;;;1.00;99.90;;;;;;5050906;28;20075;-82
2024/01/14 05:37:12;;;;;;;6.90;3.72;;;1.00;99.90;;;;;;5054601;28;20045;-85
2024/01/14 05:39:38;;;;;;;9.20;3.53;;;1.00;99.90;;;;;;5042800;28;20051;-82
2024/01/14 05:42:05;;;;;;;12.05;3.70;;;1.00;99.90;;;;;;5043515;28;20037;-83
2024/01/14 05:44:31;;;;;;;8.60;3.95;;;0.90;99.90;;;;;;5053960;28;20048;-83
2024/01/14 05:46:57;;;;;;;8.50;4.00;;;0.90;99.90;;;;;;5044590;28;20041;-83
2024/01/14 05:49:23;;;;;;;10.77;4.28;;;0.90;99.90;;;;;;5046665;28;20675;-82
2024/01/14 05:51:49;;;;;;;8.30;4.28;;;1.00;99.90;;;;;;5050570;28;20052;-83
2024/01/14 05:54:16;;;;;;;12.27;4.88;;;1.00;99.90;;;;;;5035372;28;20569;-80
2024/01/14 05:56:42;;;;;;;11.55;4.47;;;1.00;99.90;;;;;;5049493;28;20052;-82
2024/01/14 05:59:08;;;;;;;9.13;4.47;;;0.90;99.90;;;;;;5046181;28;20029;-83
2024/01/14 06:01:33;;;;;;;8.43;4.40;;;0.90;99.90;;;;;;5028893;28;20048;-83
2024/01/14 06:03:59;;;;;;;8.52;3.83;;;1.00;99.90;;;;;;5024917;28;20084;-82
2024/01/14 06:06:25;;;;;;;9.93;3.80;;;1.00;99.90;;;;;;5052718;28;20494;-85
2024/01/14 06:08:51;;;;;;;9.68;4.03;;;1.00;99.90;;;;;;5026015;28;20060;-82
2024/01/14 06:11:18;;;;;;;8.57;3.92;;;1.00;99.90;;;;;;5025398;28;20044;-82
2024/01/14 06:13:44;;;;;;;10.00;4.07;;;1.00;99.90;;;;;;5021534;28;20124;-82
2024/01/14 06:16:10;;;;;;;6.68;3.55;;;1.00;99.90;;;;;;5021672;28;20075;-82
2024/01/14 06:18:37;;;;;;;8.98;3.75;;;1.00;99.90;;;;;;5015091;28;20042;-83
2024/01/14 06:21:03;;;;;;;5.35;3.08;;;1.00;99.90;;;;;;5028449;28;20049;-83
2024/01/14 06:23:32;;;;;;;7.55;3.58;;;1.00;99.90;;;;;;5022803;28;20252;-82
2024/01/14 06:25:57;;;;;;;5.78;3.05;;;1.00;99.90;;;;;;5030619;28;20048;-84
2024/01/14 06:28:38;;;;;;;4.82;2.95;;;1.00;99.90;;;;;;5032324;28;20033;-84
2024/01/14 06:31:15;;;;;;;5.15;3.15;;;1.00;99.90;;;;;;5037628;28;20230;-82
2024/01/14 06:33:41;;;;;;;6.47;3.20;;;1.00;99.90;;;;;;5023083;28;20049;-81
2024/01/14 06:36:07;;;;;;;5.63;3.00;;;1.00;99.90;;;;;;5026222;28;20128;-82
2024/01/14 06:38:36;;;;;;;6.95;3.20;;;0.90;99.90;;;;;;5033571;28;20163;-82
2024/01/14 06:41:02;;;;;;;6.90;3.72;;;0.90;99.90;;;;;;5019383;28;20041;-81
2024/01/14 06:43:35;;;;;;;11.43;4.70;;;1.00;99.90;;;;;;5022004;28;20048;-86
2024/01/14 06:46:02;;;;;;;9.77;4.40;;;0.90;99.90;;;;;;5021697;28;20068;-85
2024/01/14 06:48:29;;;;;;;10.57;5.18;;;1.00;99.90;;;;;;5027981;28;20068;-82
2024/01/14 06:50:56;;;;;;;11.25;4.75;;;1.00;99.90;;;;;;5023717;28;20049;-82
2024/01/14 06:53:22;;;;;;;11.32;6.32;;;1.10;99.90;;;;;;5036507;28;20062;-82
2024/01/14 06:55:49;;;;;;;11.02;5.68;;;1.00;99.90;;;;;;5030654;28;20076;-83
2024/01/14 06:58:14;;;;;;;16.63;6.57;;;1.00;99.90;;;;;;5029051;28;20408;-81
2024/01/14 07:00:42;;;;;;;13.77;6.07;;;1.10;99.90;;;;;;5044482;28;20056;-82
2024/01/14 07:03:08;;;;;;;12.20;6.07;;;1.00;99.90;;;;;;5019964;28;20043;-83
2024/01/14 07:05:36;;;;;;;12.65;6.40;;;1.00;99.90;;;;;;5017050;28;20049;-81
2024/01/14 07:08:02;;;;;;;13.48;6.90;;;1.00;99.90;;;;;;5021952;28;20786;-81
2024/01/14 07:10:28;;;;;;;12.40;6.05;;;1.00;99.90;;;;;;5013746;28;20037;-82
2024/01/14 07:12:54;;;;;;;9.85;5.32;;;1.00;99.90;;;;;;5012903;28;20052;-81
2024/01/14 07:15:20;;;;;;;9.30;5.03;;;1.00;99.90;;;;;;5024031;28;20034;-82
2024/01/14 07:17:46;;;;;;;6.75;3.83;;;1.00;99.90;;;;;;5032036;28;20045;-82
2024/01/14 07:20:12;;;;;;;9.18;4.38;;;1.00;99.90;;;;;;5040354;28;20077;-84
2024/01/14 07:22:38;;;;;;;6.88;3.92;;;1.00;99.90;;;;;;5027168;28;20048;-83
2024/01/14 07:25:04;;;;;;;5.63;3.30;;;0.90;99.90;;;;;;5027907;28;20036;-83
2024/01/14 07:27:30;;;;;;;6.53;3.53;;;0.90;99.90;;;;;;5028382;28;20045;-84
2024/01/14 07:29:56;;;;;;;7.15;3.72;;;0.90;99.90;;;;;;5024058;28;20041;-81
2024/01/14 07:32:22;;;;;;;8.18;3.90;;;1.00;99.90;;;;;;5049953;28;20429;-82
2024/01/14 07:34:48;;;;;;;6.32;3.30;;;1.00;99.90;;;;;;5036394;28;20037;-85
2024/01/14 07:37:13;;;;;;;5.57;2.90;;;1.00;99.90;;;;;;5042493;28;20045;-83
2024/01/14 07:39:39;;;;;;;5.30;3.00;;;1.00;99.90;;;;;;5042543;28;20047;-82
2024/01/14 07:42:05;;;;;;;5.07;3.00;;;1.00;99.90;;;;;;5067038;28;20075;-82
2024/01/14 07:44:31;;;;;;;5.25;3.13;;;1.00;99.90;;;;;;5046557;28;20044;-82
2024/01/14 07:46:57;;;;;;;4.75;2.83;;;1.00;99.90;;;;;;5045482;28;20040;-82
2024/01/14 07:49:22;;;;;;;5.22;3.03;;;1.00;99.90;;;;;;5048597;28;20802;-82
2024/01/14 07:51:48;;;;;;;5.72;2.90;;;1.00;99.90;;;;;;5042339;28;20033;-83
2024/01/14 07:54:14;;;;;;;6.75;3.25;;;1.00;99.90;;;;;;5048660;28;20043;-82
2024/01/14 07:56:40;;;;;;;5.13;2.78;;;1.00;99.90;;;;;;5064692;28;20075;-83
2024/01/14 07:59:05;;;;;;;5.65;3.00;;;1.00;99.90;;;;;;5049373;28;20041;-83
2024/01/14 08:01:35;;;;;;;10.60;3.67;;;1.00;99.90;;;;;;5031594;28;20068;-82
2024/01/14 08:04:01;;;;;;;5.88;3.53;;;1.10;99.90;;;;;;5033021;28;20127;-81
2024/01/14 08:06:27;;;;;;;5.03;3.28;;;1.00;99.90;;;;;;5047783;28;20060;-82
2024/01/14 08:08:53;;;;;;;7.25;4.03;;;1.10;99.90;;;;;;5019859;28;20053;-82
2024/01/14 08:11:20;;;;;;;9.25;3.95;;;1.00;99.90;;;;;;5035570;28;20049;-84
2024/01/14 08:13:46;;;;;;;8.55;4.45;;;1.00;99.90;;;;;;5021182;28;20102;-82
2024/01/14 08:16:11;;;;;;;9.73;5.28;;;1.10;99.90;;;;;;5045297;28;20516;-84
2024/01/14 08:18:37;;;;;;;11.35;5.28;;;1.00;99.90;;;;;;5022049;28;20047;-83
2024/01/14 08:21:09;;;;;;;10.80;5.90;;;1.10;99.90;;;;;;5019461;28;20056;-82
2024/01/14 08:23:38;;;;;;;10.95;5.63;;;1.10;99.90;;;;;;5031283;28;20090;-85
2024/01/14 08:26:04;;;;;;;13.52;5.70;;;1.00;99.90;;;;;;5042047;28;20601;-85
2024/01/14 08:28:32;;;;;;;11.45;5.72;;;1.10;99.90;;;;;;5025759;28;20120;-81
2024/01/14 08:30:58;;;;;;;14.00;6.15;;;1.10;99.90;;;;;;5023072;28;20037;-82
2024/01/14 08:33:23;;;;;;;14.23;6.10;;;1.10;99.90;;;;;;5021989;28;20049;-83
2024/01/14 08:35:49;;;;;;;13.18;6.53;;;1.10;99.90;;;;;;5023970;28;20079;-82
2024/01/14 08:38:16;;;;;;;16.52;6.97;;;1.10;99.90;;;;;;5016499;28;20045;-84
2024/01/14 08:40:42;;;;;;;11.57;5.32;;;1.10;99.90;;;;;;5030701;28;20037;-84
2024/01/14 08:43:08;;;;;;;13.00;6.20;;;1.20;99.90;;;;;;5023551;28;20045;-82
2024/01/14 08:45:34;;;;;;;13.57;6.13;;;1.10;99.90;;;;;;5041967;28;20054;-85
2024/01/14 08:48:01;;;;;;;11.57;5.90;;;1.10;99.90;;;;;;5025214;28;20041;-85
2024/01/14 08:50:27;;;;;;;14.32;6.18;;;1.20;99.90;;;;;;5034353;28;20075;-81
2024/01/14 08:52:52;;;;;;;10.98;5.80;;;1.10;99.90;;;;;;5031591;28;20065;-84
2024/01/14 08:55:18;;;;;;;15.23;5.97;;;1.20;99.90;;;;;;5030194;28;20033;-80
2024/01/14 08:57:44;;;;;;;11.07;5.43;;;1.30;99.90;;;;;;5024573;28;20038;-83
2024/01/14 09:00:12;;;;;;;14.00;5.75;;;1.30;99.90;;;;;;5022364;28;20037;-83
2024/01/14 09:02:40;;;;;;;11.15;5.35;;;1.20;99.90;;;;;;5010414;28;20072;-82
2024/01/14 09:05:06;;;;;;;10.75;5.78;;;1.30;99.90;;;;;;5019618;28;20573;-79
2024/01/14 09:07:33;;;;;;;11.68;6.32;;;1.30;99.90;;;;;;5027753;28;20038;-82
2024/01/14 09:09:59;;;;;;;11.30;5.75;;;1.40;99.90;;;;;;5025342;28;20063;-85
2024/01/14 09:12:29;;;;;;;9.40;4.88;;;1.40;99.90;;;;;;5045710;28;20051;-84
2024/01/14 09:14:55;;;;;;;13.90;6.10;;;1.50;99.90;;;;;;5016951;28;20037;-82
2024/01/14 09:17:20;;;;;;;14.40;6.40;;;1.40;99.90;;;;;;5016781;28;20053;-82
2024/01/14 09:19:46;;;;;;;13.88;6.25;;;1.40;99.90;;;;;;5022691;28;20041;-82
2024/01/14 09:22:12;;;;;;;18.08;7.75;;;1.30;99.90;;;;;;5024798;28;20131;-82
2024/01/14 09:24:43;;;;;;;12.82;6.85;;;1.30;99.90;;;;;;5015858;28;20064;-81
2024/01/14 09:27:09;;;;;;;18.92;8.07;;;1.20;99.90;;;;;;5024008;28;20197;-82
2024/01/14 09:29:35;;;;;;;21.25;9.18;;;1.20;99.90;;;;;;5031027;28;20049;-82
2024/01/14 09:32:00;;;;;;;20.42;7.93;;;1.20;99.90;;;;;;5030987;28;20037;-82
2024/01/14 09:34:26;;;;;;;19.90;8.63;;;1.20;99.90;;;;;;5023402;28;20049;-83
2024/01/14 09:36:52;;;;;;;18.80;8.32;;;1.20;99.90;;;;;;5035305;28;20040;-83
2024/01/14 09:39:19;;;;;;;18.80;9.57;;;1.10;99.90;;;;;;5032107;28;20041;-82
2024/01/14 09:42:14;;;;;;;21.83;10.27;;;1.10;99.90;;;;;;5024692;28;20116;-81
2024/01/14 09:44:40;;;;;;;22.83;9.88;;;1.00;99.90;;;;;;5016377;28;20043;-84
2024/01/14 09:47:08;;;;;;;20.65;9.52;;;1.00;99.90;;;;;;5030658;28;20072;-84
2024/01/14 09:49:36;;;;;;;20.55;9.98;;;1.00;99.90;;;;;;5020475;28;20075;-83
2024/01/14 09:52:04;;;;;;;19.15;9.77;;;1.00;99.90;;;;;;5025968;28;20479;-82
2024/01/14 09:54:30;;;;;;;18.13;8.75;;;1.00;99.90;;;;;;5040904;28;20088;-83
2024/01/14 09:57:03;;;;;;;18.55;9.10;;;1.00;99.90;;;;;;5020138;28;20079;-83
2024/01/14 09:59:34;;;;;;;17.50;8.50;;;1.00;99.90;;;;;;5021491;28;20045;-83
2024/01/14 10:02:01;;;;;;;17.35;8.40;;;1.00;99.90;;;;;;5022775;28;20041;-83
2024/01/14 10:04:35;;;;;;;14.93;7.75;;;1.00;99.90;;;;;;5021714;28;20089;-86
2024/01/14 10:07:01;;;;;;;21.30;9.10;;;1.00;99.90;;;;;;5021760;28;20109;-83
2024/01/14 10:09:27;;;;;;;16.33;8.07;;;1.00;99.90;;;;;;5034067;28;20072;-82
2024/01/14 10:11:54;;;;;;;22.85;9.27;;;1.00;99.90;;;;;;5028447;28;20033;-82
2024/01/14 10:14:32;;;;;;;23.48;9.85;;;1.00;99.90;;;;;;5043559;28;20650;-84
2024/01/14 10:17:04;;;;;;;18.60;9.30;;;1.00;99.90;;;;;;5030267;28;20091;-81
2024/01/14 10:19:31;;;;;;;21.90;9.93;;;1.00;99.90;;;;;;5033687;28;20037;-81
2024/01/14 10:21:57;;;;;;;22.33;9.98;;;1.10;99.90;;;;;;5026192;28;20041;-82
2024/01/14 10:24:37;;;;;;;24.75;10.05;;;1.00;99.90;;;;;;5033329;28;20037;-84
2024/01/14 10:27:05;;;;;;;20.85;10.23;;;1.10;99.90;;;;;;5031516;28;20049;-83
2024/01/14 10:29:49;;;;;;;22.63;9.43;;;1.10;99.90;;;;;;5028041;28;20080;-83
2024/01/14 10:32:23;;;;;;;20.55;9.23;;;1.10;99.90;;;;;;5033281;28;20045;-81
2024/01/14 10:35:08;;;;;;;18.92;8.90;;;1.20;99.90;;;;;;5025994;28;20017;-84
2024/01/14 10:37:41;;;;;;;15.52;7.30;;;1.20;99.90;;;;;;5025019;28;20049;-81
2024/01/14 10:40:10;;;;;;;12.88;7.47;;;1.30;99.90;;;;;;5017050;28;20049;-82
2024/01/14 10:42:37;;;;;;;13.80;7.15;;;1.30;99.90;;;;;;5021519;28;21342;-84
2024/01/14 10:45:06;;;;;;;16.95;6.93;;;1.30;99.90;;;;;;5039749;28;20044;-82
2024/01/14 10:47:36;;;;;;;11.45;6.68;;;1.40;99.90;;;;;;5041698;28;20098;-82
2024/01/14 10:50:03;;;;;;;13.40;6.97;;;1.40;99.90;;;;;;5033272;28;20042;-81
2024/01/14 10:52:33;;;;;;;11.98;6.45;;;1.30;99.90;;;;;;5033112;28;20421;-81
2024/01/14 10:55:15;;;;;;;17.58;6.88;;;1.40;99.90;;;;;;5023198;28;20097;-81
2024/01/14 10:58:05;;;;;;;14.50;6.13;;;1.30;99.90;;;;;;5026488;28;20060;-85
2024/01/14 11:00:35;;;;;;;16.90;7.80;;;1.40;99.90;;;;;;5027022;28;20072;-81
2024/01/14 11:03:07;;;;;;;15.85;6.93;;;1.30;99.90;;;;;;5024918;28;20037;-81
2024/01/14 11:05:34;;;;;;;18.27;8.40;;;1.30;99.90;;;;;;5026058;28;20041;-82
2024/01/14 11:08:01;;;;;;;18.77;8.13;;;1.30;99.90;;;;;;5015938;28;20062;-82
2024/01/14 11:10:28;;;;;;;16.52;8.70;;;1.30;99.90;;;;;;5019334;28;20041;-81
2024/01/14 11:13:38;;;;;;;18.90;8.43;;;1.30;99.90;;;;;;5048561;28;20041;-81
2024/01/14 11:16:25;;;;;;;16.42;7.93;;;1.10;99.90;;;;;;5038126;28;20046;-82
2024/01/14 11:18:54;;;;;;;18.92;9.98;;;1.10;99.90;;;;;;5014482;28;20068;-82
2024/01/14 11:21:50;;;;;;;22.17;9.73;;;1.10;99.90;;;;;;5046644;28;20069;-82
2024/01/14 11:24:24;;;;;;;19.63;9.05;;;1.20;99.90;;;;;;5021198;28;20045;-82
2024/01/14 11:26:54;;;;;;;18.73;9.23;;;1.20;99.90;;;;;;5023602;28;20469;-82
2024/01/14 11:29:36;;;;;;;18.15;9.15;;;1.20;99.90;;;;;;5020822;28;20060;-82
2024/01/14 11:32:09;;;;;;;22.02;8.75;;;1.20;99.90;;;;;;5039385;28;20034;-81
2024/01/14 11:35:03;;;;;;;18.95;8.85;;;1.30;99.90;;;;;;5027777;28;20022;-83
2024/01/14 11:37:51;;;;;;;16.67;8.80;;;1.20;99.90;;;;;;5028450;28;20045;-80
2024/01/14 11:40:27;;;;;;;17.10;8.63;;;1.30;99.90;;;;;;5031936;28;20033;-81
2024/01/14 11:43:05;;;;;;;17.13;8.15;;;1.30;99.90;;;;;;5029301;28;20042;-84
2024/01/14 11:45:51;;;;;;;;;;;;;;;;;;;;;
2024/01/14 11:48:24;;;;;;;15.10;7.95;;;1.40;99.90;;;;;;5042627;28;20041;-83
2024/01/14 11:50:52;;;;;;;15.05;7.90;;;1.30;99.90;;;;;;5034273;28;20028;-81
2024/01/14 11:53:18;;;;;;;15.98;8.98;;;1.40;99.90;;;;;;5026792;28;20038;-81
2024/01/14 11:55:45;;;;;;;17.95;9.43;;;1.30;99.90;;;;;;5027271;28;20059;-84
2024/01/14 11:58:13;;;;;;;516.78;63.97;;;1.30;99.90;;;;;;5020358;28;20116;-80
2024/01/14 12:00:41;;;;;;;43.65;12.43;;;1.30;99.90;;;;;;5032381;28;20075;-83
2024/01/14 12:03:11;;;;;;;142.43;21.05;;;1.20;99.90;;;;;;5031535;28;20088;-82
2024/01/14 12:05:38;;;;;;;27.80;9.00;;;1.30;99.90;;;;;;5025784;28;20048;-80
2024/01/14 12:08:05;;;;;;;15.00;6.78;;;1.30;99.90;;;;;;5022853;28;20103;-82
2024/01/14 12:10:32;;;;;;;14.75;6.00;;;1.40;99.90;;;;;;5043486;28;20045;-81
2024/01/14 12:13:03;;;;;;;8.52;5.03;;;1.40;99.90;;;;;;5028420;28;20041;-82
2024/01/14 12:15:29;;;;;;;7.85;4.15;;;1.40;99.90;;;;;;5034874;28;20083;-81
2024/01/14 12:18:00;;;;;;;5.88;4.00;;;1.30;99.90;;;;;;5022474;28;20069;-81
2024/01/14 12:20:27;;;;;;;7.05;4.13;;;1.30;99.90;;;;;;5025742;28;20050;-82
2024/01/14 12:22:56;;;;;;;6.97;4.05;;;1.30;99.90;;;;;;5034961;28;20036;-82
2024/01/14 12:25:23;;;;;;;7.15;4.30;;;1.30;99.90;;;;;;5032707;28;20042;-84
2024/01/14 12:27:48;;;;;;;7.03;4.30;;;1.20;99.90;;;;;;5029794;28;20045;-85
2024/01/14 12:30:32;;;;;;;8.10;4.68;;;1.30;99.90;;;;;;5037968;28;20038;-81
2024/01/14 12:33:12;;;;;;;8.40;5.07;;;1.30;99.90;;;;;;5039673;28;20044;-82
2024/01/14 12:35:38;;;;;;;9.77;5.28;;;1.20;99.90;;;;;;5040425;28;20098;-82
2024/01/14 12:38:08;;;;;;;12.07;6.90;;;1.20;99.90;;;;;;5024219;28;20112;-82
2024/01/14 12:40:35;;;;;;;7.75;5.18;;;1.10;99.90;;;;;;5045948;28;20045;-85
2024/01/14 12:43:02;;;;;;;10.73;5.70;;;1.10;99.90;;;;;;5032907;28;20048;-82
2024/01/14 12:45:28;;;;;;;10.52;6.38;;;1.10;99.90;;;;;;5025546;28;20058;-83
2024/01/14 12:48:01;;;;;;;9.15;6.15;;;1.10;99.90;;;;;;5022440;28;20075;-81
2024/01/14 12:50:32;;;;;;;11.63;7.25;;;1.10;99.90;;;;;;5033456;28;20091;-80
2024/01/14 12:53:12;;;;;;;11.63;6.13;;;1.00;99.90;;;;;;5019901;28;20045;-81
2024/01/14 12:55:40;;;;;;;13.93;6.80;;;1.00;99.90;;;;;;5045121;28;20051;-83
2024/01/14 12:58:06;;;;;;;13.68;7.50;;;1.10;99.90;;;;;;5019260;28;20033;-80
2024/01/14 13:00:32;;;;;;;10.93;6.95;;;1.00;99.90;;;;;;5017995;28;20038;-80